sensor_id;sensor_type;location;lat;lon;timestamp;P1;durP1;ratioP1;P2;durP2;ratioP2
21517;SDS011;61765;45.794;24.150;2022-12-26T00:02:17;34.75;;;19.52;;
21517;SDS011;61765;45.794;24.150;2022-12-26T00:10:22;37.92;;;21.70;;
21517;SDS011;61765;45.794;24.150;2022-12-26T00:18:30;31.02;;;18.73;;
21517;SDS011;61765;45.794;24.150;2022-12-26T00:26:37;34.33;;;18.65;;
21517;SDS011;61765;45.794;24.150;2022-12-26T00:34:45;30.63;;;17.52;;
21517;SDS011;61765;45.794;24.150;2022-12-26T00:42:51;30.58;;;16.65;;
21517;SDS011;61765;45.794;24.150;2022-12-26T00:50:59;27.73;;;15.25;;
21517;SDS011;61765;45.794;24.150;2022-12-26T00:59:04;28.88;;;17.25;;
21517;SDS011;61765;45.794;24.150;2022-12-26T01:07:12;26.65;;;16.02;;
21517;SDS011;61765;45.794;24.150;2022-12-26T01:15:18;37.65;;;20.70;;
21517;SDS011;61765;45.794;24.150;2022-12-26T01:23:26;38.45;;;21.65;;
21517;SDS011;61765;45.794;24.150;2022-12-26T01:31:32;38.90;;;22.95;;
21517;SDS011;61765;45.794;24.150;2022-12-26T01:39:40;42.42;;;24.08;;
21517;SDS011;61765;45.794;24.150;2022-12-26T01:47:47;30.35;;;17.83;;
21517;SDS011;61765;45.794;24.150;2022-12-26T01:56:00;26.40;;;15.27;;
21517;SDS011;61765;45.794;24.150;2022-12-26T02:04:10;22.88;;;13.63;;
21517;SDS011;61765;45.794;24.150;2022-12-26T02:12:34;24.27;;;13.40;;
21517;SDS011;61765;45.794;24.150;2022-12-26T02:20:40;21.88;;;13.15;;
21517;SDS011;61765;45.794;24.150;2022-12-26T02:29:06;23.20;;;13.90;;
21517;SDS011;61765;45.794;24.150;2022-12-26T02:37:41;24.20;;;13.93;;
21517;SDS011;61765;45.794;24.150;2022-12-26T02:45:59;20.60;;;13.20;;
21517;SDS011;61765;45.794;24.150;2022-12-26T02:54:29;22.25;;;12.48;;
21517;SDS011;61765;45.794;24.150;2022-12-26T03:02:54;19.65;;;12.05;;
21517;SDS011;61765;45.794;24.150;2022-12-26T03:11:18;22.05;;;12.73;;
21517;SDS011;61765;45.794;24.150;2022-12-26T03:19:37;21.15;;;12.90;;
21517;SDS011;61765;45.794;24.150;2022-12-26T03:28:01;19.70;;;11.02;;
21517;SDS011;61765;45.794;24.150;2022-12-26T03:36:09;17.52;;;10.80;;
21517;SDS011;61765;45.794;24.150;2022-12-26T03:44:21;19.98;;;10.77;;
21517;SDS011;61765;45.794;24.150;2022-12-26T03:52:54;15.50;;;9.60;;
21517;SDS011;61765;45.794;24.150;2022-12-26T04:01:22;17.42;;;10.68;;
21517;SDS011;61765;45.794;24.150;2022-12-26T04:09:44;18.58;;;10.30;;
21517;SDS011;61765;45.794;24.150;2022-12-26T04:18:09;19.33;;;11.80;;
21517;SDS011;61765;45.794;24.150;2022-12-26T04:26:31;19.33;;;12.10;;
21517;SDS011;61765;45.794;24.150;2022-12-26T04:35:03;19.63;;;11.80;;
21517;SDS011;61765;45.794;24.150;2022-12-26T04:43:23;23.48;;;13.48;;
21517;SDS011;61765;45.794;24.150;2022-12-26T04:51:59;19.55;;;11.73;;
21517;SDS011;61765;45.794;24.150;2022-12-26T05:00:21;18.92;;;12.20;;
21517;SDS011;61765;45.794;24.150;2022-12-26T05:08:32;17.20;;;11.32;;
21517;SDS011;61765;45.794;24.150;2022-12-26T05:16:52;17.85;;;11.60;;
21517;SDS011;61765;45.794;24.150;2022-12-26T05:25:14;18.75;;;10.75;;
21517;SDS011;61765;45.794;24.150;2022-12-26T05:33:36;15.73;;;10.00;;
21517;SDS011;61765;45.794;24.150;2022-12-26T05:41:57;17.05;;;10.75;;
21517;SDS011;61765;45.794;24.150;2022-12-26T05:50:03;16.48;;;10.23;;
21517;SDS011;61765;45.794;24.150;2022-12-26T05:58:12;18.13;;;10.90;;
21517;SDS011;61765;45.794;24.150;2022-12-26T06:06:18;17.40;;;9.93;;
21517;SDS011;61765;45.794;24.150;2022-12-26T06:14:26;13.05;;;8.50;;
21517;SDS011;61765;45.794;24.150;2022-12-26T06:22:32;14.52;;;9.35;;
21517;SDS011;61765;45.794;24.150;2022-12-26T06:30:40;17.83;;;10.13;;
21517;SDS011;61765;45.794;24.150;2022-12-26T06:38:45;14.07;;;9.45;;
21517;SDS011;61765;45.794;24.150;2022-12-26T06:46:54;12.38;;;8.38;;
21517;SDS011;61765;45.794;24.150;2022-12-26T06:55:01;13.98;;;8.80;;
21517;SDS011;61765;45.794;24.150;2022-12-26T07:03:09;17.05;;;9.73;;
21517;SDS011;61765;45.794;24.150;2022-12-26T07:11:19;32.83;;;16.30;;
21517;SDS011;61765;45.794;24.150;2022-12-26T07:19:29;20.38;;;12.00;;
21517;SDS011;61765;45.794;24.150;2022-12-26T07:27:34;20.02;;;11.10;;
21517;SDS011;61765;45.794;24.150;2022-12-26T07:35:42;18.40;;;10.40;;
21517;SDS011;61765;45.794;24.150;2022-12-26T07:43:48;16.15;;;9.95;;
21517;SDS011;61765;45.794;24.150;2022-12-26T07:51:56;16.92;;;11.15;;
21517;SDS011;61765;45.794;24.150;2022-12-26T08:00:02;19.60;;;10.63;;
21517;SDS011;61765;45.794;24.150;2022-12-26T08:08:15;16.27;;;10.10;;
21517;SDS011;61765;45.794;24.150;2022-12-26T08:16:20;12.60;;;8.48;;
21517;SDS011;61765;45.794;24.150;2022-12-26T08:24:29;16.77;;;9.60;;
21517;SDS011;61765;45.794;24.150;2022-12-26T08:32:35;12.80;;;8.48;;
21517;SDS011;61765;45.794;24.150;2022-12-26T08:40:54;12.85;;;8.60;;
21517;SDS011;61765;45.794;24.150;2022-12-26T08:49:01;12.73;;;8.85;;
21517;SDS011;61765;45.794;24.150;2022-12-26T08:57:09;21.02;;;14.48;;
21517;SDS011;61765;45.794;24.150;2022-12-26T09:05:14;24.88;;;14.77;;
21517;SDS011;61765;45.794;24.150;2022-12-26T09:13:22;24.23;;;15.52;;
21517;SDS011;61765;45.794;24.150;2022-12-26T09:21:29;21.45;;;14.05;;
21517;SDS011;61765;45.794;24.150;2022-12-26T09:29:37;23.75;;;16.25;;
21517;SDS011;61765;45.794;24.150;2022-12-26T09:37:43;16.10;;;11.98;;
21517;SDS011;61765;45.794;24.150;2022-12-26T09:45:54;11.07;;;7.53;;
21517;SDS011;61765;45.794;24.150;2022-12-26T09:54:10;9.98;;;8.10;;
21517;SDS011;61765;45.794;24.150;2022-12-26T10:02:25;10.88;;;8.10;;
21517;SDS011;61765;45.794;24.150;2022-12-26T10:10:34;11.90;;;9.10;;
21517;SDS011;61765;45.794;24.150;2022-12-26T10:18:52;13.88;;;9.55;;
21517;SDS011;61765;45.794;24.150;2022-12-26T10:27:13;15.57;;;10.02;;
21517;SDS011;61765;45.794;24.150;2022-12-26T10:35:32;14.50;;;9.13;;
21517;SDS011;61765;45.794;24.150;2022-12-26T10:43:40;16.40;;;9.32;;
21517;SDS011;61765;45.794;24.150;2022-12-26T10:51:49;12.95;;;8.05;;
21517;SDS011;61765;45.794;24.150;2022-12-26T10:59:56;13.93;;;7.38;;
21517;SDS011;61765;45.794;24.150;2022-12-26T11:08:08;15.25;;;6.53;;
21517;SDS011;61765;45.794;24.150;2022-12-26T11:16:24;10.43;;;6.20;;
21517;SDS011;61765;45.794;24.150;2022-12-26T11:24:37;10.38;;;5.50;;
21517;SDS011;61765;45.794;24.150;2022-12-26T11:32:43;9.30;;;5.85;;
21517;SDS011;61765;45.794;24.150;2022-12-26T11:40:54;12.07;;;6.70;;
21517;SDS011;61765;45.794;24.150;2022-12-26T11:49:16;8.48;;;4.72;;
21517;SDS011;61765;45.794;24.150;2022-12-26T11:57:29;16.98;;;5.28;;
21517;SDS011;61765;45.794;24.150;2022-12-26T12:05:38;7.97;;;5.68;;
21517;SDS011;61765;45.794;24.150;2022-12-26T12:13:57;9.98;;;5.68;;
21517;SDS011;61765;45.794;24.150;2022-12-26T12:22:34;6.38;;;4.78;;
21517;SDS011;61765;45.794;24.150;2022-12-26T12:30:53;7.82;;;3.75;;
21517;SDS011;61765;45.794;24.150;2022-12-26T12:39:08;24.08;;;11.82;;
21517;SDS011;61765;45.794;24.150;2022-12-26T12:47:20;8.65;;;3.92;;
21517;SDS011;61765;45.794;24.150;2022-12-26T12:55:49;7.82;;;3.40;;
21517;SDS011;61765;45.794;24.150;2022-12-26T13:04:17;10.25;;;3.70;;
21517;SDS011;61765;45.794;24.150;2022-12-26T13:12:28;4.97;;;3.10;;
21517;SDS011;61765;45.794;24.150;2022-12-26T13:20:41;6.90;;;3.15;;
21517;SDS011;61765;45.794;24.150;2022-12-26T13:28:51;7.93;;;2.90;;
21517;SDS011;61765;45.794;24.150;2022-12-26T13:37:04;7.47;;;3.93;;
21517;SDS011;61765;45.794;24.150;2022-12-26T13:53:57;8.95;;;4.63;;
21517;SDS011;61765;45.794;24.150;2022-12-26T14:02:17;8.23;;;4.30;;
21517;SDS011;61765;45.794;24.150;2022-12-26T14:11:01;12.20;;;4.60;;
21517;SDS011;61765;45.794;24.150;2022-12-26T14:19:28;19.42;;;9.52;;
21517;SDS011;61765;45.794;24.150;2022-12-26T14:27:46;9.93;;;5.95;;
21517;SDS011;61765;45.794;24.150;2022-12-26T14:44:42;17.38;;;10.40;;
21517;SDS011;61765;45.794;24.150;2022-12-26T14:52:49;14.13;;;9.30;;
21517;SDS011;61765;45.794;24.150;2022-12-26T15:10:04;21.88;;;11.35;;
21517;SDS011;61765;45.794;24.150;2022-12-26T15:27:23;15.30;;;8.45;;
21517;SDS011;61765;45.794;24.150;2022-12-26T15:35:49;15.43;;;6.90;;
21517;SDS011;61765;45.794;24.150;2022-12-26T15:44:11;14.05;;;6.38;;
21517;SDS011;61765;45.794;24.150;2022-12-26T15:52:26;9.48;;;6.25;;
21517;SDS011;61765;45.794;24.150;2022-12-26T16:00:46;13.75;;;7.10;;
21517;SDS011;61765;45.794;24.150;2022-12-26T16:17:22;19.33;;;7.95;;
21517;SDS011;61765;45.794;24.150;2022-12-26T16:25:28;18.33;;;8.45;;
21517;SDS011;61765;45.794;24.150;2022-12-26T16:33:41;15.43;;;7.15;;
21517;SDS011;61765;45.794;24.150;2022-12-26T16:42:01;14.00;;;8.35;;
21517;SDS011;61765;45.794;24.150;2022-12-26T16:50:15;12.38;;;8.00;;
21517;SDS011;61765;45.794;24.150;2022-12-26T16:58:23;14.90;;;9.00;;
21517;SDS011;61765;45.794;24.150;2022-12-26T17:06:34;17.00;;;10.45;;
21517;SDS011;61765;45.794;24.150;2022-12-26T17:14:45;20.17;;;11.48;;
21517;SDS011;61765;45.794;24.150;2022-12-26T17:22:55;29.10;;;15.35;;
21517;SDS011;61765;45.794;24.150;2022-12-26T17:31:02;25.70;;;14.00;;
21517;SDS011;61765;45.794;24.150;2022-12-26T17:39:20;28.27;;;16.85;;
21517;SDS011;61765;45.794;24.150;2022-12-26T17:47:27;23.90;;;13.77;;
21517;SDS011;61765;45.794;24.150;2022-12-26T17:55:36;25.73;;;15.30;;
21517;SDS011;61765;45.794;24.150;2022-12-26T18:03:42;26.17;;;15.18;;
21517;SDS011;61765;45.794;24.150;2022-12-26T18:11:50;23.17;;;13.93;;
21517;SDS011;61765;45.794;24.150;2022-12-26T18:19:56;22.48;;;14.20;;
21517;SDS011;61765;45.794;24.150;2022-12-26T18:28:04;17.25;;;9.85;;
21517;SDS011;61765;45.794;24.150;2022-12-26T18:36:14;16.20;;;10.13;;
21517;SDS011;61765;45.794;24.150;2022-12-26T18:44:43;20.98;;;10.55;;
21517;SDS011;61765;45.794;24.150;2022-12-26T18:53:15;16.58;;;10.63;;
21517;SDS011;61765;45.794;24.150;2022-12-26T19:01:23;16.23;;;9.68;;
21517;SDS011;61765;45.794;24.150;2022-12-26T19:09:29;15.25;;;9.93;;
21517;SDS011;61765;45.794;24.150;2022-12-26T19:17:37;14.48;;;8.80;;
21517;SDS011;61765;45.794;24.150;2022-12-26T19:25:44;16.70;;;9.30;;
21517;SDS011;61765;45.794;24.150;2022-12-26T19:33:52;17.35;;;9.45;;
21517;SDS011;61765;45.794;24.150;2022-12-26T19:42:00;16.80;;;9.52;;
21517;SDS011;61765;45.794;24.150;2022-12-26T19:50:09;20.23;;;11.90;;
21517;SDS011;61765;45.794;24.150;2022-12-26T19:58:16;18.55;;;11.48;;
21517;SDS011;61765;45.794;24.150;2022-12-26T20:06:25;22.15;;;12.10;;
21517;SDS011;61765;45.794;24.150;2022-12-26T20:14:32;28.50;;;15.30;;
21517;SDS011;61765;45.794;24.150;2022-12-26T20:22:40;24.45;;;14.02;;
21517;SDS011;61765;45.794;24.150;2022-12-26T20:30:57;24.98;;;14.13;;
21517;SDS011;61765;45.794;24.150;2022-12-26T20:39:06;22.33;;;12.48;;
21517;SDS011;61765;45.794;24.150;2022-12-26T20:47:16;27.17;;;14.10;;
21517;SDS011;61765;45.794;24.150;2022-12-26T20:55:25;19.67;;;11.02;;
21517;SDS011;61765;45.794;24.150;2022-12-26T21:03:31;15.77;;;10.23;;
21517;SDS011;61765;45.794;24.150;2022-12-26T21:11:40;16.73;;;9.55;;
21517;SDS011;61765;45.794;24.150;2022-12-26T21:19:46;16.55;;;10.68;;
21517;SDS011;61765;45.794;24.150;2022-12-26T21:27:54;18.95;;;11.10;;
21517;SDS011;61765;45.794;24.150;2022-12-26T21:36:00;16.98;;;10.95;;
21517;SDS011;61765;45.794;24.150;2022-12-26T21:44:08;20.90;;;11.30;;
21517;SDS011;61765;45.794;24.150;2022-12-26T21:52:14;17.23;;;9.95;;
21517;SDS011;61765;45.794;24.150;2022-12-26T22:00:22;18.00;;;11.25;;
21517;SDS011;61765;45.794;24.150;2022-12-26T22:08:28;18.98;;;11.38;;
21517;SDS011;61765;45.794;24.150;2022-12-26T22:16:36;17.80;;;11.07;;
21517;SDS011;61765;45.794;24.150;2022-12-26T22:24:42;20.10;;;11.35;;
21517;SDS011;61765;45.794;24.150;2022-12-26T22:32:50;20.45;;;12.43;;
21517;SDS011;61765;45.794;24.150;2022-12-26T22:41:01;23.95;;;12.15;;
21517;SDS011;61765;45.794;24.150;2022-12-26T22:49:10;19.98;;;12.32;;
21517;SDS011;61765;45.794;24.150;2022-12-26T22:57:15;22.48;;;12.73;;
21517;SDS011;61765;45.794;24.150;2022-12-26T23:05:25;21.63;;;12.57;;
21517;SDS011;61765;45.794;24.150;2022-12-26T23:13:34;22.58;;;13.43;;
21517;SDS011;61765;45.794;24.150;2022-12-26T23:21:44;20.98;;;12.02;;
21517;SDS011;61765;45.794;24.150;2022-12-26T23:29:51;19.30;;;11.63;;
21517;SDS011;61765;45.794;24.150;2022-12-26T23:38:12;20.52;;;12.25;;
21517;SDS011;61765;45.794;24.150;2022-12-26T23:46:18;20.17;;;12.18;;
21517;SDS011;61765;45.794;24.150;2022-12-26T23:54:27;19.23;;;12.65;;
